sensor_id;sensor_type;location;lat;lon;timestamp;temperature;humidity
12384;DHT22;6256;63.808;20.336;2023-06-14T00:00:13;10.90;99.90
12384;DHT22;6256;63.808;20.336;2023-06-14T00:02:40;10.90;99.90
12384;DHT22;6256;63.808;20.336;2023-06-14T00:05:07;10.90;99.90
12384;DHT22;6256;63.808;20.336;2023-06-14T00:07:38;10.90;99.90
12384;DHT22;6256;63.808;20.336;2023-06-14T00:10:08;10.80;99.90
12384;DHT22;6256;63.808;20.336;2023-06-14T00:12:34;10.80;99.90
12384;DHT22;6256;63.808;20.336;2023-06-14T00:15:01;10.70;99.90
12384;DHT22;6256;63.808;20.336;2023-06-14T00:17:27;10.60;99.90
12384;DHT22;6256;63.808;20.336;2023-06-14T00:19:56;10.60;99.90
12384;DHT22;6256;63.808;20.336;2023-06-14T00:22:22;10.60;99.90
12384;DHT22;6256;63.808;20.336;2023-06-14T00:24:50;10.50;99.90
12384;DHT22;6256;63.808;20.336;2023-06-14T00:27:16;10.60;99.90
12384;DHT22;6256;63.808;20.336;2023-06-14T00:32:08;10.40;99.90
12384;DHT22;6256;63.808;20.336;2023-06-14T00:34:34;10.30;99.90
12384;DHT22;6256;63.808;20.336;2023-06-14T00:37:00;10.40;99.90
12384;DHT22;6256;63.808;20.336;2023-06-14T00:39:26;10.30;99.90
12384;DHT22;6256;63.808;20.336;2023-06-14T00:41:51;10.30;99.90
12384;DHT22;6256;63.808;20.336;2023-06-14T00:44:17;10.30;99.90
12384;DHT22;6256;63.808;20.336;2023-06-14T00:46:45;10.30;99.90
12384;DHT22;6256;63.808;20.336;2023-06-14T00:49:12;10.30;99.90
12384;DHT22;6256;63.808;20.336;2023-06-14T00:51:39;10.20;99.90
12384;DHT22;6256;63.808;20.336;2023-06-14T00:54:04;10.20;99.90
12384;DHT22;6256;63.808;20.336;2023-06-14T00:56:30;10.10;99.90
12384;DHT22;6256;63.808;20.336;2023-06-14T00:58:57;10.00;99.90
12384;DHT22;6256;63.808;20.336;2023-06-14T01:01:23;10.00;99.90
12384;DHT22;6256;63.808;20.336;2023-06-14T01:03:49;10.00;99.90
12384;DHT22;6256;63.808;20.336;2023-06-14T01:06:44;10.00;99.90
12384;DHT22;6256;63.808;20.336;2023-06-14T01:09:27;10.00;99.90
12384;DHT22;6256;63.808;20.336;2023-06-14T01:14:41;9.90;99.90
12384;DHT22;6256;63.808;20.336;2023-06-14T01:17:08;9.90;99.90
12384;DHT22;6256;63.808;20.336;2023-06-14T01:19:42;9.90;99.90
12384;DHT22;6256;63.808;20.336;2023-06-14T01:22:09;9.90;99.90
12384;DHT22;6256;63.808;20.336;2023-06-14T01:24:34;9.90;99.90
12384;DHT22;6256;63.808;20.336;2023-06-14T01:27:01;9.90;99.90
12384;DHT22;6256;63.808;20.336;2023-06-14T01:29:28;9.80;99.90
12384;DHT22;6256;63.808;20.336;2023-06-14T01:31:59;9.80;99.90
12384;DHT22;6256;63.808;20.336;2023-06-14T01:34:25;9.80;99.90
12384;DHT22;6256;63.808;20.336;2023-06-14T01:36:52;9.80;99.90
12384;DHT22;6256;63.808;20.336;2023-06-14T01:39:20;9.80;99.90
12384;DHT22;6256;63.808;20.336;2023-06-14T01:41:47;9.80;99.90
12384;DHT22;6256;63.808;20.336;2023-06-14T01:44:16;9.80;99.90
12384;DHT22;6256;63.808;20.336;2023-06-14T01:46:42;9.70;99.90
12384;DHT22;6256;63.808;20.336;2023-06-14T01:49:09;9.70;99.90
12384;DHT22;6256;63.808;20.336;2023-06-14T01:51:35;9.70;99.90
12384;DHT22;6256;63.808;20.336;2023-06-14T01:54:01;9.70;99.90
12384;DHT22;6256;63.808;20.336;2023-06-14T01:56:27;9.70;99.90
12384;DHT22;6256;63.808;20.336;2023-06-14T01:58:53;9.70;99.90
12384;DHT22;6256;63.808;20.336;2023-06-14T02:01:19;9.70;99.90
12384;DHT22;6256;63.808;20.336;2023-06-14T02:03:47;9.60;99.90
12384;DHT22;6256;63.808;20.336;2023-06-14T02:06:13;9.70;99.90
12384;DHT22;6256;63.808;20.336;2023-06-14T02:08:41;9.70;99.90
12384;DHT22;6256;63.808;20.336;2023-06-14T02:11:08;9.80;99.90
12384;DHT22;6256;63.808;20.336;2023-06-14T02:13:34;9.80;99.90
12384;DHT22;6256;63.808;20.336;2023-06-14T02:16:00;9.80;99.90
12384;DHT22;6256;63.808;20.336;2023-06-14T02:18:26;9.80;99.90
12384;DHT22;6256;63.808;20.336;2023-06-14T02:20:52;9.80;99.90
12384;DHT22;6256;63.808;20.336;2023-06-14T02:23:18;9.90;99.90
12384;DHT22;6256;63.808;20.336;2023-06-14T02:25:44;9.90;99.90
12384;DHT22;6256;63.808;20.336;2023-06-14T02:28:11;10.00;99.90
12384;DHT22;6256;63.808;20.336;2023-06-14T02:30:37;10.00;99.90
12384;DHT22;6256;63.808;20.336;2023-06-14T02:33:02;10.00;99.90
12384;DHT22;6256;63.808;20.336;2023-06-14T02:35:30;10.00;99.90
12384;DHT22;6256;63.808;20.336;2023-06-14T02:37:57;10.10;99.90
12384;DHT22;6256;63.808;20.336;2023-06-14T02:40:23;10.10;99.90
12384;DHT22;6256;63.808;20.336;2023-06-14T02:42:49;10.10;99.90
12384;DHT22;6256;63.808;20.336;2023-06-14T02:45:15;10.10;99.90
12384;DHT22;6256;63.808;20.336;2023-06-14T02:47:40;10.20;99.90
12384;DHT22;6256;63.808;20.336;2023-06-14T02:50:07;10.20;99.90
12384;DHT22;6256;63.808;20.336;2023-06-14T02:52:33;10.20;99.90
12384;DHT22;6256;63.808;20.336;2023-06-14T02:54:59;10.20;99.90
12384;DHT22;6256;63.808;20.336;2023-06-14T02:57:25;10.20;99.90
12384;DHT22;6256;63.808;20.336;2023-06-14T02:59:50;10.30;99.90
12384;DHT22;6256;63.808;20.336;2023-06-14T03:02:17;10.40;99.90
12384;DHT22;6256;63.808;20.336;2023-06-14T03:04:42;10.40;99.90
12384;DHT22;6256;63.808;20.336;2023-06-14T03:07:08;10.50;99.90
12384;DHT22;6256;63.808;20.336;2023-06-14T03:09:38;10.60;99.90
12384;DHT22;6256;63.808;20.336;2023-06-14T03:12:05;10.70;99.90
12384;DHT22;6256;63.808;20.336;2023-06-14T03:14:32;10.70;99.90
12384;DHT22;6256;63.808;20.336;2023-06-14T03:16:58;10.80;99.90
12384;DHT22;6256;63.808;20.336;2023-06-14T03:19:26;10.80;99.90
12384;DHT22;6256;63.808;20.336;2023-06-14T03:21:52;10.90;99.90
12384;DHT22;6256;63.808;20.336;2023-06-14T03:24:19;11.00;99.90
12384;DHT22;6256;63.808;20.336;2023-06-14T03:26:45;11.10;99.90
12384;DHT22;6256;63.808;20.336;2023-06-14T03:29:11;11.20;99.90
12384;DHT22;6256;63.808;20.336;2023-06-14T03:34:02;11.40;99.90
12384;DHT22;6256;63.808;20.336;2023-06-14T03:36:31;11.60;99.90
12384;DHT22;6256;63.808;20.336;2023-06-14T03:39:01;11.70;99.90
12384;DHT22;6256;63.808;20.336;2023-06-14T03:41:27;11.80;99.90
12384;DHT22;6256;63.808;20.336;2023-06-14T03:43:53;11.80;99.90
12384;DHT22;6256;63.808;20.336;2023-06-14T03:46:19;11.90;99.90
12384;DHT22;6256;63.808;20.336;2023-06-14T03:48:44;12.00;99.90
12384;DHT22;6256;63.808;20.336;2023-06-14T03:51:10;12.10;99.90
12384;DHT22;6256;63.808;20.336;2023-06-14T03:53:36;12.20;99.90
12384;DHT22;6256;63.808;20.336;2023-06-14T03:56:02;12.30;99.90
12384;DHT22;6256;63.808;20.336;2023-06-14T03:58:27;12.40;99.90
12384;DHT22;6256;63.808;20.336;2023-06-14T04:00:53;12.50;99.90
12384;DHT22;6256;63.808;20.336;2023-06-14T04:03:19;12.70;99.90
12384;DHT22;6256;63.808;20.336;2023-06-14T04:05:45;12.80;99.90
12384;DHT22;6256;63.808;20.336;2023-06-14T04:10:41;13.00;99.90
12384;DHT22;6256;63.808;20.336;2023-06-14T04:13:07;13.10;99.90
12384;DHT22;6256;63.808;20.336;2023-06-14T04:15:32;13.30;99.90
12384;DHT22;6256;63.808;20.336;2023-06-14T04:17:59;13.50;99.90
12384;DHT22;6256;63.808;20.336;2023-06-14T04:20:25;13.70;99.90
12384;DHT22;6256;63.808;20.336;2023-06-14T04:22:52;13.90;99.90
12384;DHT22;6256;63.808;20.336;2023-06-14T04:25:18;14.00;99.90
12384;DHT22;6256;63.808;20.336;2023-06-14T04:27:44;14.10;99.90
12384;DHT22;6256;63.808;20.336;2023-06-14T04:30:10;14.20;99.90
12384;DHT22;6256;63.808;20.336;2023-06-14T04:32:36;14.30;99.90
12384;DHT22;6256;63.808;20.336;2023-06-14T04:35:07;14.40;99.90
12384;DHT22;6256;63.808;20.336;2023-06-14T04:37:33;14.60;99.90
12384;DHT22;6256;63.808;20.336;2023-06-14T04:39:59;14.70;99.90
12384;DHT22;6256;63.808;20.336;2023-06-14T04:42:26;14.80;99.90
12384;DHT22;6256;63.808;20.336;2023-06-14T04:44:56;14.90;99.90
12384;DHT22;6256;63.808;20.336;2023-06-14T04:47:23;15.00;99.90
12384;DHT22;6256;63.808;20.336;2023-06-14T04:49:55;15.30;99.90
12384;DHT22;6256;63.808;20.336;2023-06-14T04:52:21;15.40;99.90
12384;DHT22;6256;63.808;20.336;2023-06-14T04:54:47;15.60;99.90
12384;DHT22;6256;63.808;20.336;2023-06-14T04:57:14;15.70;99.90
12384;DHT22;6256;63.808;20.336;2023-06-14T04:59:43;15.80;99.90
12384;DHT22;6256;63.808;20.336;2023-06-14T05:02:10;16.00;99.90
12384;DHT22;6256;63.808;20.336;2023-06-14T05:04:35;16.10;99.90
12384;DHT22;6256;63.808;20.336;2023-06-14T05:07:08;16.20;99.90
12384;DHT22;6256;63.808;20.336;2023-06-14T05:09:35;16.30;99.90
12384;DHT22;6256;63.808;20.336;2023-06-14T05:12:01;16.30;99.90
12384;DHT22;6256;63.808;20.336;2023-06-14T05:14:26;16.40;99.90
12384;DHT22;6256;63.808;20.336;2023-06-14T05:16:52;16.50;99.90
12384;DHT22;6256;63.808;20.336;2023-06-14T05:19:19;16.60;99.90
12384;DHT22;6256;63.808;20.336;2023-06-14T05:21:46;16.60;99.90
12384;DHT22;6256;63.808;20.336;2023-06-14T05:24:13;16.70;99.90
12384;DHT22;6256;63.808;20.336;2023-06-14T05:26:39;16.80;99.90
12384;DHT22;6256;63.808;20.336;2023-06-14T05:29:05;16.80;99.90
12384;DHT22;6256;63.808;20.336;2023-06-14T05:31:31;16.90;99.90
12384;DHT22;6256;63.808;20.336;2023-06-14T05:33:58;17.00;99.90
12384;DHT22;6256;63.808;20.336;2023-06-14T05:36:24;17.10;99.90
12384;DHT22;6256;63.808;20.336;2023-06-14T05:38:50;17.20;99.90
12384;DHT22;6256;63.808;20.336;2023-06-14T05:41:24;17.30;99.90
12384;DHT22;6256;63.808;20.336;2023-06-14T05:43:51;17.40;99.90
12384;DHT22;6256;63.808;20.336;2023-06-14T05:46:17;17.50;99.90
12384;DHT22;6256;63.808;20.336;2023-06-14T05:48:47;17.60;99.90
12384;DHT22;6256;63.808;20.336;2023-06-14T05:51:13;17.70;99.90
12384;DHT22;6256;63.808;20.336;2023-06-14T05:53:40;17.80;99.90
12384;DHT22;6256;63.808;20.336;2023-06-14T05:56:05;17.80;99.90
12384;DHT22;6256;63.808;20.336;2023-06-14T05:58:31;17.90;99.90
12384;DHT22;6256;63.808;20.336;2023-06-14T06:00:57;18.00;99.90
12384;DHT22;6256;63.808;20.336;2023-06-14T06:03:23;18.00;99.90
12384;DHT22;6256;63.808;20.336;2023-06-14T06:05:49;18.10;99.90
12384;DHT22;6256;63.808;20.336;2023-06-14T06:08:14;18.20;99.90
12384;DHT22;6256;63.808;20.336;2023-06-14T06:10:42;18.30;99.90
12384;DHT22;6256;63.808;20.336;2023-06-14T06:13:08;18.40;99.90
12384;DHT22;6256;63.808;20.336;2023-06-14T06:15:33;18.50;99.90
12384;DHT22;6256;63.808;20.336;2023-06-14T06:17:59;18.60;99.90
12384;DHT22;6256;63.808;20.336;2023-06-14T06:20:25;18.60;99.90
12384;DHT22;6256;63.808;20.336;2023-06-14T06:22:55;18.70;99.90
12384;DHT22;6256;63.808;20.336;2023-06-14T06:25:21;18.80;98.70
12384;DHT22;6256;63.808;20.336;2023-06-14T06:27:47;18.90;98.90
12384;DHT22;6256;63.808;20.336;2023-06-14T06:30:13;19.00;94.60
12384;DHT22;6256;63.808;20.336;2023-06-14T06:32:39;19.10;94.40
12384;DHT22;6256;63.808;20.336;2023-06-14T06:35:05;19.20;92.20
12384;DHT22;6256;63.808;20.336;2023-06-14T06:37:32;19.30;93.70
12384;DHT22;6256;63.808;20.336;2023-06-14T06:39:58;19.40;95.80
12384;DHT22;6256;63.808;20.336;2023-06-14T06:42:24;19.60;91.80
12384;DHT22;6256;63.808;20.336;2023-06-14T06:44:50;19.70;91.10
12384;DHT22;6256;63.808;20.336;2023-06-14T06:47:15;19.90;91.50
12384;DHT22;6256;63.808;20.336;2023-06-14T06:49:41;20.00;92.60
12384;DHT22;6256;63.808;20.336;2023-06-14T06:52:07;20.10;93.10
12384;DHT22;6256;63.808;20.336;2023-06-14T06:54:33;20.20;90.00
12384;DHT22;6256;63.808;20.336;2023-06-14T06:57:00;20.30;79.00
12384;DHT22;6256;63.808;20.336;2023-06-14T06:59:27;20.40;73.80
12384;DHT22;6256;63.808;20.336;2023-06-14T07:01:53;20.40;74.90
12384;DHT22;6256;63.808;20.336;2023-06-14T07:04:18;20.40;70.00
12384;DHT22;6256;63.808;20.336;2023-06-14T07:06:45;20.40;71.30
12384;DHT22;6256;63.808;20.336;2023-06-14T07:09:12;20.50;70.20
12384;DHT22;6256;63.808;20.336;2023-06-14T07:11:39;20.50;68.00
12384;DHT22;6256;63.808;20.336;2023-06-14T07:14:05;20.60;67.00
12384;DHT22;6256;63.808;20.336;2023-06-14T07:16:31;20.70;70.90
12384;DHT22;6256;63.808;20.336;2023-06-14T07:18:57;20.70;68.90
12384;DHT22;6256;63.808;20.336;2023-06-14T07:21:23;20.80;72.10
12384;DHT22;6256;63.808;20.336;2023-06-14T07:23:48;20.80;71.00
12384;DHT22;6256;63.808;20.336;2023-06-14T07:26:14;20.90;68.80
12384;DHT22;6256;63.808;20.336;2023-06-14T07:28:40;20.90;62.50
12384;DHT22;6256;63.808;20.336;2023-06-14T07:31:05;21.10;67.30
12384;DHT22;6256;63.808;20.336;2023-06-14T07:33:31;21.20;68.60
12384;DHT22;6256;63.808;20.336;2023-06-14T07:35:57;21.30;69.20
12384;DHT22;6256;63.808;20.336;2023-06-14T07:38:22;21.40;70.70
12384;DHT22;6256;63.808;20.336;2023-06-14T07:40:48;21.40;69.00
12384;DHT22;6256;63.808;20.336;2023-06-14T07:43:13;21.50;73.30
12384;DHT22;6256;63.808;20.336;2023-06-14T07:45:39;21.70;73.30
12384;DHT22;6256;63.808;20.336;2023-06-14T07:48:05;21.80;68.00
12384;DHT22;6256;63.808;20.336;2023-06-14T07:50:31;21.90;69.60
12384;DHT22;6256;63.808;20.336;2023-06-14T07:52:56;22.00;71.90
12384;DHT22;6256;63.808;20.336;2023-06-14T07:55:22;22.10;69.00
12384;DHT22;6256;63.808;20.336;2023-06-14T07:57:48;22.10;68.40
12384;DHT22;6256;63.808;20.336;2023-06-14T08:00:14;22.10;72.30
12384;DHT22;6256;63.808;20.336;2023-06-14T08:02:41;22.20;70.30
12384;DHT22;6256;63.808;20.336;2023-06-14T08:05:09;22.30;72.30
12384;DHT22;6256;63.808;20.336;2023-06-14T08:07:35;22.20;72.10
12384;DHT22;6256;63.808;20.336;2023-06-14T08:10:01;22.30;70.10
12384;DHT22;6256;63.808;20.336;2023-06-14T08:12:26;22.50;70.30
12384;DHT22;6256;63.808;20.336;2023-06-14T08:14:52;22.60;72.20
12384;DHT22;6256;63.808;20.336;2023-06-14T08:17:18;22.70;70.00
12384;DHT22;6256;63.808;20.336;2023-06-14T08:19:43;22.50;69.60
12384;DHT22;6256;63.808;20.336;2023-06-14T08:22:10;22.70;72.70
12384;DHT22;6256;63.808;20.336;2023-06-14T08:24:38;23.00;72.40
12384;DHT22;6256;63.808;20.336;2023-06-14T08:27:05;23.00;70.30
12384;DHT22;6256;63.808;20.336;2023-06-14T08:29:31;23.00;71.10
12384;DHT22;6256;63.808;20.336;2023-06-14T08:31:57;23.30;72.40
12384;DHT22;6256;63.808;20.336;2023-06-14T08:34:22;23.30;69.90
12384;DHT22;6256;63.808;20.336;2023-06-14T08:36:51;23.40;72.90
12384;DHT22;6256;63.808;20.336;2023-06-14T08:39:17;23.50;71.30
12384;DHT22;6256;63.808;20.336;2023-06-14T08:41:47;23.60;71.60
12384;DHT22;6256;63.808;20.336;2023-06-14T08:44:16;23.70;72.70
12384;DHT22;6256;63.808;20.336;2023-06-14T08:46:42;23.80;72.70
12384;DHT22;6256;63.808;20.336;2023-06-14T08:49:11;23.80;73.70
12384;DHT22;6256;63.808;20.336;2023-06-14T08:51:38;23.80;71.10
12384;DHT22;6256;63.808;20.336;2023-06-14T08:54:06;23.90;75.70
12384;DHT22;6256;63.808;20.336;2023-06-14T08:56:32;23.90;71.90
12384;DHT22;6256;63.808;20.336;2023-06-14T08:58:59;23.80;72.00
12384;DHT22;6256;63.808;20.336;2023-06-14T09:01:33;24.00;73.50
12384;DHT22;6256;63.808;20.336;2023-06-14T09:04:00;24.00;69.50
12384;DHT22;6256;63.808;20.336;2023-06-14T09:06:25;24.10;71.40
12384;DHT22;6256;63.808;20.336;2023-06-14T09:08:54;24.20;73.80
12384;DHT22;6256;63.808;20.336;2023-06-14T09:11:21;24.20;73.90
12384;DHT22;6256;63.808;20.336;2023-06-14T09:13:48;24.00;71.00
12384;DHT22;6256;63.808;20.336;2023-06-14T09:16:14;24.10;73.40
12384;DHT22;6256;63.808;20.336;2023-06-14T09:18:44;24.20;77.60
12384;DHT22;6256;63.808;20.336;2023-06-14T09:21:14;24.00;75.40
12384;DHT22;6256;63.808;20.336;2023-06-14T09:23:45;24.20;76.10
12384;DHT22;6256;63.808;20.336;2023-06-14T09:26:16;24.10;77.10
12384;DHT22;6256;63.808;20.336;2023-06-14T09:28:49;24.30;76.60
12384;DHT22;6256;63.808;20.336;2023-06-14T09:31:20;24.00;74.20
12384;DHT22;6256;63.808;20.336;2023-06-14T09:33:49;23.50;74.50
12384;DHT22;6256;63.808;20.336;2023-06-14T09:39:02;23.40;76.70
12384;DHT22;6256;63.808;20.336;2023-06-14T09:41:39;23.90;77.50
12384;DHT22;6256;63.808;20.336;2023-06-14T09:44:06;24.00;74.70
12384;DHT22;6256;63.808;20.336;2023-06-14T09:46:33;24.30;73.40
12384;DHT22;6256;63.808;20.336;2023-06-14T09:49:00;24.60;77.40
12384;DHT22;6256;63.808;20.336;2023-06-14T09:51:27;24.70;76.70
12384;DHT22;6256;63.808;20.336;2023-06-14T09:53:55;24.40;77.40
12384;DHT22;6256;63.808;20.336;2023-06-14T09:56:29;24.50;74.60
12384;DHT22;6256;63.808;20.336;2023-06-14T09:58:59;24.70;74.60
12384;DHT22;6256;63.808;20.336;2023-06-14T10:01:27;24.90;73.60
12384;DHT22;6256;63.808;20.336;2023-06-14T10:03:58;24.90;70.30
12384;DHT22;6256;63.808;20.336;2023-06-14T10:06:26;25.10;70.60
12384;DHT22;6256;63.808;20.336;2023-06-14T10:08:57;25.20;70.10
12384;DHT22;6256;63.808;20.336;2023-06-14T10:11:26;25.20;69.00
12384;DHT22;6256;63.808;20.336;2023-06-14T10:13:52;25.40;70.30
12384;DHT22;6256;63.808;20.336;2023-06-14T10:16:32;25.40;69.80
12384;DHT22;6256;63.808;20.336;2023-06-14T10:24:17;25.60;69.90
12384;DHT22;6256;63.808;20.336;2023-06-14T10:26:52;25.90;66.90
12384;DHT22;6256;63.808;20.336;2023-06-14T10:29:18;26.10;67.40
12384;DHT22;6256;63.808;20.336;2023-06-14T10:31:48;26.40;65.50
12384;DHT22;6256;63.808;20.336;2023-06-14T10:34:29;26.40;65.50
12384;DHT22;6256;63.808;20.336;2023-06-14T10:37:12;26.60;64.00
12384;DHT22;6256;63.808;20.336;2023-06-14T10:39:43;26.30;66.60
12384;DHT22;6256;63.808;20.336;2023-06-14T10:42:13;26.60;65.20
12384;DHT22;6256;63.808;20.336;2023-06-14T10:44:40;26.60;66.40
12384;DHT22;6256;63.808;20.336;2023-06-14T10:47:26;26.60;64.90
12384;DHT22;6256;63.808;20.336;2023-06-14T10:52:24;26.60;64.30
12384;DHT22;6256;63.808;20.336;2023-06-14T10:55:12;26.80;66.50
12384;DHT22;6256;63.808;20.336;2023-06-14T10:57:53;27.10;65.60
12384;DHT22;6256;63.808;20.336;2023-06-14T11:00:25;27.10;64.90
12384;DHT22;6256;63.808;20.336;2023-06-14T11:05:56;27.70;61.90
12384;DHT22;6256;63.808;20.336;2023-06-14T11:11:16;28.10;63.70
12384;DHT22;6256;63.808;20.336;2023-06-14T11:13:45;27.10;62.70
12384;DHT22;6256;63.808;20.336;2023-06-14T11:16:15;27.80;64.40
12384;DHT22;6256;63.808;20.336;2023-06-14T11:18:41;28.30;62.30
12384;DHT22;6256;63.808;20.336;2023-06-14T11:21:07;29.10;63.10
12384;DHT22;6256;63.808;20.336;2023-06-14T11:23:34;29.70;62.00
12384;DHT22;6256;63.808;20.336;2023-06-14T11:26:00;30.10;62.00
12384;DHT22;6256;63.808;20.336;2023-06-14T11:28:38;29.70;58.60
12384;DHT22;6256;63.808;20.336;2023-06-14T11:31:04;29.70;59.50
12384;DHT22;6256;63.808;20.336;2023-06-14T11:33:30;30.50;60.60
12384;DHT22;6256;63.808;20.336;2023-06-14T11:35:56;30.50;60.40
12384;DHT22;6256;63.808;20.336;2023-06-14T11:38:22;30.70;58.20
12384;DHT22;6256;63.808;20.336;2023-06-14T11:40:48;30.90;59.80
12384;DHT22;6256;63.808;20.336;2023-06-14T11:43:13;30.30;58.20
12384;DHT22;6256;63.808;20.336;2023-06-14T11:45:39;30.00;59.40
12384;DHT22;6256;63.808;20.336;2023-06-14T11:48:06;29.80;57.00
12384;DHT22;6256;63.808;20.336;2023-06-14T11:50:32;29.80;57.20
12384;DHT22;6256;63.808;20.336;2023-06-14T11:53:01;30.50;58.00
12384;DHT22;6256;63.808;20.336;2023-06-14T11:55:37;31.00;57.10
12384;DHT22;6256;63.808;20.336;2023-06-14T11:58:02;31.40;55.70
12384;DHT22;6256;63.808;20.336;2023-06-14T12:00:29;31.30;56.00
12384;DHT22;6256;63.808;20.336;2023-06-14T12:02:55;31.70;57.30
12384;DHT22;6256;63.808;20.336;2023-06-14T12:05:22;31.70;55.40
12384;DHT22;6256;63.808;20.336;2023-06-14T12:07:49;31.70;54.80
12384;DHT22;6256;63.808;20.336;2023-06-14T12:10:16;31.40;55.70
12384;DHT22;6256;63.808;20.336;2023-06-14T12:12:42;31.50;54.70
12384;DHT22;6256;63.808;20.336;2023-06-14T12:15:09;31.40;54.50
12384;DHT22;6256;63.808;20.336;2023-06-14T12:17:38;31.30;55.70
12384;DHT22;6256;63.808;20.336;2023-06-14T12:20:09;31.80;54.40
12384;DHT22;6256;63.808;20.336;2023-06-14T12:22:55;32.00;53.30
12384;DHT22;6256;63.808;20.336;2023-06-14T12:25:35;32.20;53.50
12384;DHT22;6256;63.808;20.336;2023-06-14T12:28:06;32.80;54.30
12384;DHT22;6256;63.808;20.336;2023-06-14T12:30:32;31.90;52.50
12384;DHT22;6256;63.808;20.336;2023-06-14T12:33:01;31.60;52.70
12384;DHT22;6256;63.808;20.336;2023-06-14T12:35:27;31.40;55.00
12384;DHT22;6256;63.808;20.336;2023-06-14T12:37:52;32.30;53.40
12384;DHT22;6256;63.808;20.336;2023-06-14T12:40:19;32.30;53.00
12384;DHT22;6256;63.808;20.336;2023-06-14T12:42:45;31.40;53.80
12384;DHT22;6256;63.808;20.336;2023-06-14T12:45:14;31.30;53.80
12384;DHT22;6256;63.808;20.336;2023-06-14T12:47:40;32.10;55.00
12384;DHT22;6256;63.808;20.336;2023-06-14T12:50:06;31.70;53.90
12384;DHT22;6256;63.808;20.336;2023-06-14T12:52:32;31.30;53.90
12384;DHT22;6256;63.808;20.336;2023-06-14T12:55:02;31.70;55.20
12384;DHT22;6256;63.808;20.336;2023-06-14T12:57:29;31.60;54.10
12384;DHT22;6256;63.808;20.336;2023-06-14T12:59:54;30.70;54.70
12384;DHT22;6256;63.808;20.336;2023-06-14T13:02:20;31.20;56.00
12384;DHT22;6256;63.808;20.336;2023-06-14T13:04:47;31.80;54.00
12384;DHT22;6256;63.808;20.336;2023-06-14T13:07:13;31.80;51.90
12384;DHT22;6256;63.808;20.336;2023-06-14T13:09:41;31.80;54.30
12384;DHT22;6256;63.808;20.336;2023-06-14T13:12:07;32.00;54.20
12384;DHT22;6256;63.808;20.336;2023-06-14T13:14:33;32.00;53.50
12384;DHT22;6256;63.808;20.336;2023-06-14T13:16:59;32.60;54.10
12384;DHT22;6256;63.808;20.336;2023-06-14T13:19:25;33.20;53.20
12384;DHT22;6256;63.808;20.336;2023-06-14T13:21:51;32.30;52.30
12384;DHT22;6256;63.808;20.336;2023-06-14T13:24:17;32.30;51.90
12384;DHT22;6256;63.808;20.336;2023-06-14T13:26:42;30.90;52.40
12384;DHT22;6256;63.808;20.336;2023-06-14T13:29:08;31.10;50.30
12384;DHT22;6256;63.808;20.336;2023-06-14T13:31:34;31.30;50.40
12384;DHT22;6256;63.808;20.336;2023-06-14T13:33:59;31.60;50.20
12384;DHT22;6256;63.808;20.336;2023-06-14T13:36:25;31.70;51.60
12384;DHT22;6256;63.808;20.336;2023-06-14T13:38:51;31.80;52.70
12384;DHT22;6256;63.808;20.336;2023-06-14T13:41:18;32.30;50.70
12384;DHT22;6256;63.808;20.336;2023-06-14T13:43:44;32.50;50.50
12384;DHT22;6256;63.808;20.336;2023-06-14T13:46:09;32.70;49.40
12384;DHT22;6256;63.808;20.336;2023-06-14T13:48:35;33.10;49.50
12384;DHT22;6256;63.808;20.336;2023-06-14T13:51:01;33.60;48.70
12384;DHT22;6256;63.808;20.336;2023-06-14T13:53:26;33.00;48.80
12384;DHT22;6256;63.808;20.336;2023-06-14T13:55:52;33.00;49.50
12384;DHT22;6256;63.808;20.336;2023-06-14T13:58:18;32.10;48.10
12384;DHT22;6256;63.808;20.336;2023-06-14T14:00:44;33.10;49.20
12384;DHT22;6256;63.808;20.336;2023-06-14T14:03:10;34.00;49.60
12384;DHT22;6256;63.808;20.336;2023-06-14T14:05:36;33.80;49.10
12384;DHT22;6256;63.808;20.336;2023-06-14T14:08:03;34.20;48.60
12384;DHT22;6256;63.808;20.336;2023-06-14T14:10:29;34.10;49.20
12384;DHT22;6256;63.808;20.336;2023-06-14T14:12:55;33.70;47.90
12384;DHT22;6256;63.808;20.336;2023-06-14T14:15:20;33.10;47.90
12384;DHT22;6256;63.808;20.336;2023-06-14T14:17:46;32.90;49.60
12384;DHT22;6256;63.808;20.336;2023-06-14T14:20:12;31.90;50.50
12384;DHT22;6256;63.808;20.336;2023-06-14T14:22:41;31.50;50.00
12384;DHT22;6256;63.808;20.336;2023-06-14T14:25:07;31.50;49.70
12384;DHT22;6256;63.808;20.336;2023-06-14T14:27:33;30.90;52.00
12384;DHT22;6256;63.808;20.336;2023-06-14T14:29:59;30.50;50.20
12384;DHT22;6256;63.808;20.336;2023-06-14T14:32:24;30.70;51.40
12384;DHT22;6256;63.808;20.336;2023-06-14T14:34:50;30.60;50.10
12384;DHT22;6256;63.808;20.336;2023-06-14T14:37:16;30.30;50.70
12384;DHT22;6256;63.808;20.336;2023-06-14T14:39:43;30.40;53.10
12384;DHT22;6256;63.808;20.336;2023-06-14T14:42:09;30.40;53.00
12384;DHT22;6256;63.808;20.336;2023-06-14T14:44:37;30.40;53.30
12384;DHT22;6256;63.808;20.336;2023-06-14T14:47:03;30.50;51.30
12384;DHT22;6256;63.808;20.336;2023-06-14T14:49:30;30.60;50.60
12384;DHT22;6256;63.808;20.336;2023-06-14T14:51:56;30.90;51.10
12384;DHT22;6256;63.808;20.336;2023-06-14T14:54:22;30.40;50.40
12384;DHT22;6256;63.808;20.336;2023-06-14T14:56:48;30.30;51.10
12384;DHT22;6256;63.808;20.336;2023-06-14T14:59:14;29.80;49.30
12384;DHT22;6256;63.808;20.336;2023-06-14T15:01:40;29.10;50.70
12384;DHT22;6256;63.808;20.336;2023-06-14T15:04:06;29.00;52.20
12384;DHT22;6256;63.808;20.336;2023-06-14T15:06:31;29.10;52.60
12384;DHT22;6256;63.808;20.336;2023-06-14T15:09:01;29.20;52.00
12384;DHT22;6256;63.808;20.336;2023-06-14T15:11:26;29.30;52.40
12384;DHT22;6256;63.808;20.336;2023-06-14T15:13:52;29.50;53.30
12384;DHT22;6256;63.808;20.336;2023-06-14T15:16:18;30.00;54.20
12384;DHT22;6256;63.808;20.336;2023-06-14T15:18:44;30.10;51.50
12384;DHT22;6256;63.808;20.336;2023-06-14T15:21:11;29.60;52.60
12384;DHT22;6256;63.808;20.336;2023-06-14T15:23:37;29.90;52.90
12384;DHT22;6256;63.808;20.336;2023-06-14T15:26:03;29.90;51.40
12384;DHT22;6256;63.808;20.336;2023-06-14T15:28:29;29.70;51.20
12384;DHT22;6256;63.808;20.336;2023-06-14T15:30:55;29.70;51.20
12384;DHT22;6256;63.808;20.336;2023-06-14T15:33:22;29.60;51.60
12384;DHT22;6256;63.808;20.336;2023-06-14T15:35:47;29.70;51.20
12384;DHT22;6256;63.808;20.336;2023-06-14T15:38:13;29.80;52.20
12384;DHT22;6256;63.808;20.336;2023-06-14T15:40:39;29.50;52.30
12384;DHT22;6256;63.808;20.336;2023-06-14T15:43:05;29.40;52.00
12384;DHT22;6256;63.808;20.336;2023-06-14T15:45:30;30.10;52.70
12384;DHT22;6256;63.808;20.336;2023-06-14T15:47:57;30.20;51.40
12384;DHT22;6256;63.808;20.336;2023-06-14T15:50:22;31.10;51.60
12384;DHT22;6256;63.808;20.336;2023-06-14T15:52:48;31.50;50.00
12384;DHT22;6256;63.808;20.336;2023-06-14T15:55:14;32.60;49.10
12384;DHT22;6256;63.808;20.336;2023-06-14T15:57:39;33.40;48.80